Time;durP1;ratioP1;P1;durP2;ratioP2;P2;SDS_P1;SDS_P2;PMS_P1;PMS_P2;Temp;Humidity;BMP_temperature;BMP_pressure;BME280_temperature;BME280_humidity;BME280_pressure;Samples;Min_cycle;Max_cycle;Signal;HPM_P1;HPM_P2
2023/03/02 00:02:02;;;;;;;0.20;0.10;;;;;;;7.50;65.39;100775.28;5060897;28;20120;-72
2023/03/02 00:04:36;;;;;;;0.20;0.00;;;;;;;7.48;65.60;100782.38;5061827;28;20392;-72
2023/03/02 00:07:06;;;;;;;0.10;0.00;;;;;;;7.58;65.43;100779.88;5048211;28;20444;-73
2023/03/02 00:09:33;;;;;;;0.05;0.00;;;;;;;7.61;65.06;100770.09;5047233;28;20138;-72
2023/03/02 00:11:59;;;;;;;0.08;0.00;;;;;;;7.58;65.07;100765.13;5063707;28;20036;-73
2023/03/02 00:14:25;;;;;;;0.10;0.00;;;;;;;7.60;65.44;100763.25;5065733;28;20476;-72
2023/03/02 00:16:50;;;;;;;0.08;0.00;;;;;;;7.61;65.31;100757.13;5066409;28;20048;-72
2023/03/02 00:19:16;;;;;;;0.20;0.00;;;;;;;7.62;65.33;100760.53;5064633;28;20036;-72
2023/03/02 00:21:42;;;;;;;0.20;0.00;;;;;;;7.69;65.26;100766.09;5060873;28;20033;-72
2023/03/02 00:24:08;;;;;;;0.10;0.00;;;;;;;7.63;65.38;100772.56;5062370;28;20029;-72
2023/03/02 00:26:35;;;;;;;0.25;0.05;;;;;;;7.80;64.98;100753.94;5066790;28;20054;-72
2023/03/02 00:29:01;;;;;;;0.13;0.00;;;;;;;7.78;64.79;100788.72;5064596;28;20040;-72
2023/03/02 00:31:27;;;;;;;0.00;0.00;;;;;;;7.88;64.18;100767.13;5063046;28;20491;-72
2023/03/02 00:33:53;;;;;;;1.40;0.00;;;;;;;7.78;64.34;100755.81;5064246;28;20045;-72
2023/03/02 00:36:20;;;;;;;0.20;0.00;;;;;;;7.60;65.16;100772.78;5061534;28;20032;-72
2023/03/02 00:38:46;;;;;;;0.13;0.10;;;;;;;7.66;65.25;100757.59;5065510;28;20025;-73
2023/03/02 00:41:12;;;;;;;0.17;0.10;;;;;;;7.65;65.39;100748.16;5064495;28;20078;-72
2023/03/02 00:43:38;;;;;;;0.20;0.10;;;;;;;7.61;65.45;100759.72;5060238;28;20020;-72
2023/03/02 00:46:08;;;;;;;0.20;0.08;;;;;;;7.58;65.67;100762.53;5062213;28;20091;-72
2023/03/02 00:48:34;;;;;;;0.20;0.10;;;;;;;7.68;65.62;100759.25;5062832;28;20021;-72
2023/03/02 00:51:00;;;;;;;0.20;0.10;;;;;;;7.79;65.08;100746.28;5059583;28;20040;-72
2023/03/02 00:53:26;;;;;;;0.25;0.10;;;;;;;7.90;65.09;100754.03;5061868;28;20044;-72
2023/03/02 00:55:53;;;;;;;0.40;0.20;;;;;;;7.85;65.15;100741.44;5059708;28;20025;-72
2023/03/02 00:58:20;;;;;;;0.32;0.20;;;;;;;7.82;65.16;100746.03;5068079;28;20028;-72
2023/03/02 01:00:46;;;;;;;0.30;0.10;;;;;;;7.89;64.95;100750.63;5052184;28;20036;-73
2023/03/02 01:03:12;;;;;;;0.32;0.10;;;;;;;7.93;64.87;100736.47;5065123;28;20146;-72
2023/03/02 01:05:38;;;;;;;0.50;0.20;;;;;;;7.99;64.56;100728.22;5062764;28;20123;-72
2023/03/02 01:08:04;;;;;;;0.20;0.10;;;;;;;7.97;64.71;100718.91;5059249;28;20535;-72
2023/03/02 01:10:31;;;;;;;0.30;0.10;;;;;;;7.82;65.28;100713.13;5061232;28;20441;-73
2023/03/02 01:12:57;;;;;;;0.55;0.10;;;;;;;7.68;65.73;100707.38;5045686;28;20029;-72
2023/03/02 01:15:22;;;;;;;0.30;0.10;;;;;;;7.64;66.10;100714.56;5066335;28;20090;-72
2023/03/02 01:17:48;;;;;;;0.10;0.10;;;;;;;7.83;65.16;100711.38;5061098;28;20033;-72
2023/03/02 01:20:15;;;;;;;0.10;0.00;;;;;;;7.90;64.76;100697.78;5064984;28;20044;-72
2023/03/02 01:22:42;;;;;;;0.10;0.10;;;;;;;7.95;64.91;100694.84;5059686;28;20033;-73
2023/03/02 01:25:12;;;;;;;0.70;0.10;;;;;;;7.97;64.88;100685.16;5067865;28;20119;-72
2023/03/02 01:27:37;;;;;;;0.30;0.10;;;;;;;8.03;64.70;100702.84;5067286;28;20043;-72
2023/03/02 01:30:04;;;;;;;0.57;0.10;;;;;;;8.25;63.89;100707.94;5066709;28;20372;-72
2023/03/02 01:32:30;;;;;;;0.45;0.10;;;;;;;8.16;64.36;100677.53;5061590;28;20403;-72
2023/03/02 01:34:56;;;;;;;0.22;0.10;;;;;;;8.01;64.80;100673.59;5062323;28;20031;-72
2023/03/02 01:37:22;;;;;;;0.63;0.10;;;;;;;7.94;65.48;100656.88;5062969;28;20032;-72
2023/03/02 01:39:49;;;;;;;0.32;0.10;;;;;;;8.02;65.00;100662.28;5066737;28;20029;-72
2023/03/02 01:42:15;;;;;;;0.32;0.10;;;;;;;7.93;65.43;100663.00;5049500;28;20044;-72
2023/03/02 01:44:44;;;;;;;0.30;0.20;;;;;;;7.95;65.23;100646.38;5062229;28;20036;-72
2023/03/02 01:47:29;;;;;;;0.40;0.20;;;;;;;7.87;65.67;100645.31;5051996;28;20029;-72
2023/03/02 01:49:57;;;;;;;0.30;0.17;;;;;;;7.65;66.25;100644.44;5051492;28;20139;-72
2023/03/02 01:52:25;;;;;;;0.20;0.20;;;;;;;7.47;67.00;100658.03;5068686;28;20105;-72
2023/03/02 01:54:53;;;;;;;0.70;0.20;;;;;;;7.51;66.84;100644.72;5069014;28;20044;-73
2023/03/02 01:57:27;;;;;;;0.30;0.10;;;;;;;7.75;66.38;100652.31;5059919;28;20024;-72
2023/03/02 01:59:58;;;;;;;0.40;0.20;;;;;;;7.84;66.03;100649.00;5049992;28;20569;-72
2023/03/02 02:02:24;;;;;;;0.40;0.10;;;;;;;7.59;66.62;100646.69;5068689;28;20028;-72
2023/03/02 02:04:52;;;;;;;0.32;0.10;;;;;;;7.49;66.87;100649.19;5051512;28;20116;-72
2023/03/02 02:07:17;;;;;;;0.68;0.20;;;;;;;7.38;67.56;100667.34;5067137;28;20029;-72
2023/03/02 02:09:47;;;;;;;1.27;0.20;;;;;;;7.61;66.43;100643.03;5058142;28;20407;-72
2023/03/02 02:12:16;;;;;;;0.40;0.20;;;;;;;7.52;67.05;100648.97;5070284;28;20476;-72
2023/03/02 02:14:43;;;;;;;0.30;0.15;;;;;;;7.63;66.71;100659.28;5050603;28;20395;-72
2023/03/02 02:17:11;;;;;;;0.52;0.20;;;;;;;7.72;66.30;100654.31;5071727;28;20063;-72
2023/03/02 02:19:45;;;;;;;0.40;0.20;;;;;;;7.79;65.77;100658.91;5068146;28;20036;-72
2023/03/02 02:22:15;;;;;;;0.60;0.20;;;;;;;7.63;66.50;100664.47;5065665;28;20043;-72
2023/03/02 02:24:40;;;;;;;1.02;0.20;;;;;;;7.43;67.22;100659.22;5067531;28;20024;-72
2023/03/02 02:27:07;;;;;;;1.02;0.20;;;;;;;7.37;67.82;100662.28;5062713;28;20032;-72
2023/03/02 02:29:37;;;;;;;0.20;0.10;;;;;;;7.27;68.14;100659.56;5069420;28;20037;-72
2023/03/02 02:32:11;;;;;;;0.50;0.20;;;;;;;7.10;69.07;100657.44;5069466;28;20082;-72
2023/03/02 02:34:44;;;;;;;1.02;0.20;;;;;;;6.89;69.57;100652.97;5067598;28;20021;-72
2023/03/02 02:37:19;;;;;;;0.73;0.20;;;;;;;6.69;70.60;100648.47;5068762;28;20055;-72
2023/03/02 02:39:47;;;;;;;1.03;0.30;;;;;;;6.60;71.66;100652.59;5067911;28;20021;-72
2023/03/02 02:42:33;;;;;;;0.57;0.20;;;;;;;6.62;71.20;100644.69;5067153;28;20035;-72
2023/03/02 02:45:10;;;;;;;0.50;0.20;;;;;;;6.58;71.45;100651.88;5037735;28;20037;-72
2023/03/02 02:47:37;;;;;;;0.50;0.20;;;;;;;6.58;72.37;100658.81;5051414;28;20119;-73
2023/03/02 02:50:04;;;;;;;0.30;0.10;;;;;;;7.14;70.30;100638.97;5067241;28;20062;-72
2023/03/02 02:52:29;;;;;;;1.15;0.10;;;;;;;7.42;69.18;100639.41;5066552;28;20223;-72
2023/03/02 02:54:58;;;;;;;0.40;0.20;;;;;;;7.40;69.28;100631.75;5073030;28;20555;-72
2023/03/02 02:57:27;;;;;;;0.45;0.20;;;;;;;7.78;68.07;100626.13;5070915;28;20049;-72
2023/03/02 02:59:57;;;;;;;0.43;0.20;;;;;;;8.03;67.22;100614.63;5044857;28;20435;-72
2023/03/02 03:02:28;;;;;;;0.70;0.20;;;;;;;8.16;66.59;100617.84;5062258;28;20041;-72
2023/03/02 03:05:01;;;;;;;0.65;0.20;;;;;;;8.18;66.35;100615.94;5058096;28;20028;-72
2023/03/02 03:07:30;;;;;;;0.52;0.17;;;;;;;8.07;66.66;100616.00;5061115;28;20428;-72
2023/03/02 03:10:27;;;;;;;0.40;0.20;;;;;;;8.08;66.53;100611.63;5061263;28;20039;-72
2023/03/02 03:12:54;;;;;;;0.60;0.20;;;;;;;8.13;66.36;100615.50;5067685;28;20028;-72
2023/03/02 03:15:21;;;;;;;1.10;0.20;;;;;;;8.09;66.63;100613.25;5059061;28;20130;-72
2023/03/02 03:17:56;;;;;;;0.50;0.20;;;;;;;8.06;66.71;100609.16;5069429;28;20019;-73
2023/03/02 03:20:24;;;;;;;1.75;0.20;;;;;;;7.99;67.08;100621.00;5054115;28;20032;-73
2023/03/02 03:22:52;;;;;;;0.85;0.10;;;;;;;7.92;67.24;100630.22;5063638;28;20507;-73
2023/03/02 03:25:20;;;;;;;0.40;0.20;;;;;;;8.04;66.87;100613.63;5062281;28;20040;-73
2023/03/02 03:27:46;;;;;;;0.30;0.13;;;;;;;8.09;66.64;100624.47;5041911;28;20041;-72
2023/03/02 03:30:14;;;;;;;0.40;0.10;;;;;;;8.25;65.71;100630.06;5064340;28;20045;-72
2023/03/02 03:32:40;;;;;;;0.40;0.20;;;;;;;8.30;65.59;100625.31;5034073;28;20165;-72
2023/03/02 03:35:10;;;;;;;0.40;0.20;;;;;;;8.41;65.33;100623.66;5062052;28;20082;-72
2023/03/02 03:37:39;;;;;;;0.28;0.17;;;;;;;8.38;65.04;100627.31;5063278;28;20484;-72
2023/03/02 03:40:08;;;;;;;1.80;0.20;;;;;;;8.28;65.38;100647.16;5064570;28;20059;-72
2023/03/02 03:42:36;;;;;;;0.60;0.30;;;;;;;7.97;66.62;100623.72;5066008;28;20132;-72
2023/03/02 03:45:02;;;;;;;0.95;0.20;;;;;;;7.63;67.99;100629.94;5063970;28;20059;-72
2023/03/02 03:47:28;;;;;;;1.38;0.22;;;;;;;7.62;68.20;100626.53;5059960;28;20032;-73
2023/03/02 03:49:54;;;;;;;0.70;0.20;;;;;;;7.52;68.82;100623.03;5062948;28;20060;-73
2023/03/02 03:52:29;;;;;;;1.00;0.20;;;;;;;7.40;69.38;100631.75;5064863;28;20025;-72
2023/03/02 03:54:58;;;;;;;0.60;0.30;;;;;;;7.27;70.04;100618.09;5065639;28;20040;-72
2023/03/02 03:57:26;;;;;;;1.08;0.20;;;;;;;7.31;69.78;100630.72;5064410;28;20040;-72
2023/03/02 03:59:52;;;;;;;0.47;0.20;;;;;;;7.48;69.19;100615.63;5066209;28;20481;-72
2023/03/02 04:02:19;;;;;;;0.60;0.20;;;;;;;7.44;69.06;100611.63;5065874;28;20035;-72
2023/03/02 04:04:45;;;;;;;0.75;0.20;;;;;;;7.27;69.72;100618.09;5063567;28;20041;-72
2023/03/02 04:07:12;;;;;;;0.45;0.20;;;;;;;7.27;70.00;100628.47;5065906;28;20468;-72
2023/03/02 04:09:39;;;;;;;0.60;0.20;;;;;;;7.51;69.12;100607.59;5064115;28;20054;-72
2023/03/02 04:12:06;;;;;;;0.20;0.10;;;;;;;7.86;67.65;100628.13;5061130;28;20056;-72
2023/03/02 04:14:31;;;;;;;0.38;0.10;;;;;;;8.12;66.43;100613.84;5063536;28;20036;-72
2023/03/02 04:16:57;;;;;;;0.40;0.10;;;;;;;7.96;66.90;100624.66;5057273;28;20039;-73
2023/03/02 04:19:23;;;;;;;0.75;0.25;;;;;;;7.63;68.32;100627.34;5060981;28;20112;-72
2023/03/02 04:21:52;;;;;;;2.13;0.28;;;;;;;7.75;67.90;100612.59;5064602;28;20033;-72
2023/03/02 04:24:20;;;;;;;0.47;0.30;;;;;;;7.80;67.82;100615.63;5046693;28;20044;-73
2023/03/02 04:26:47;;;;;;;0.60;0.20;;;;;;;7.96;67.29;100621.25;5064825;28;20033;-72
2023/03/02 04:29:14;;;;;;;0.93;0.20;;;;;;;7.96;67.27;100610.88;5061266;28;20040;-72
2023/03/02 04:31:39;;;;;;;2.58;0.20;;;;;;;8.08;66.99;100611.63;5063632;28;20038;-72
2023/03/02 04:34:06;;;;;;;0.93;0.40;;;;;;;8.22;66.29;100611.31;5046164;28;20032;-72
2023/03/02 04:36:37;;;;;;;0.60;0.20;;;;;;;8.45;65.25;100617.25;5065462;28;20040;-72
2023/03/02 04:39:04;;;;;;;2.13;0.20;;;;;;;8.40;65.36;100609.03;5061469;28;20060;-72
2023/03/02 04:41:30;;;;;;;1.17;0.22;;;;;;;8.30;65.82;100627.91;5047570;28;20032;-72
2023/03/02 04:43:56;;;;;;;1.65;0.20;;;;;;;8.28;66.01;100629.00;5066341;28;20420;-72
2023/03/02 04:46:24;;;;;;;0.40;0.20;;;;;;;8.11;66.86;100621.75;5064778;28;20051;-72
2023/03/02 04:48:50;;;;;;;0.82;0.30;;;;;;;7.82;68.11;100637.09;5041038;28;20462;-72
2023/03/02 04:51:24;;;;;;;1.00;0.30;;;;;;;7.58;68.88;100645.84;5065099;28;20138;-72
2023/03/02 04:53:51;;;;;;;1.30;0.32;;;;;;;7.50;69.36;100635.28;5061708;28;20040;-72
2023/03/02 04:56:17;;;;;;;1.05;0.40;;;;;;;7.41;69.82;100645.56;5058551;28;20020;-72
2023/03/02 04:58:43;;;;;;;1.35;0.40;;;;;;;7.28;70.82;100643.09;5064447;28;20356;-71
2023/03/02 05:01:11;;;;;;;0.75;0.50;;;;;;;7.17;71.54;100658.63;5048028;28;20040;-72
2023/03/02 05:03:36;;;;;;;0.82;0.70;;;;;;;7.13;71.75;100659.81;5062978;28;20149;-72
2023/03/02 05:06:02;;;;;;;0.68;0.30;;;;;;;7.19;71.64;100654.16;5055368;28;20059;-72
2023/03/02 05:08:29;;;;;;;1.40;0.40;;;;;;;7.32;70.88;100649.69;5054332;28;20063;-72
2023/03/02 05:10:57;;;;;;;2.08;0.30;;;;;;;7.37;70.53;100650.16;5057311;28;20437;-72
2023/03/02 05:13:23;;;;;;;2.03;0.40;;;;;;;7.24;70.98;100652.03;5062992;28;20047;-72
2023/03/02 05:15:50;;;;;;;1.15;0.40;;;;;;;7.10;71.66;100675.59;5049805;28;20344;-72
2023/03/02 05:18:16;;;;;;;2.25;0.38;;;;;;;6.98;72.06;100673.00;5061486;28;20123;-72
2023/03/02 05:20:42;;;;;;;1.25;0.38;;;;;;;6.93;72.53;100658.75;5057999;28;20456;-72
2023/03/02 05:23:10;;;;;;;1.33;0.30;;;;;;;6.97;72.46;100668.78;5061979;28;20401;-72
2023/03/02 05:25:37;;;;;;;3.58;0.60;;;;;;;7.00;72.13;100665.13;5063121;28;20399;-72
2023/03/02 05:28:04;;;;;;;1.92;0.47;;;;;;;6.88;72.75;100676.41;5060245;28;20024;-72
2023/03/02 05:30:31;;;;;;;1.58;0.65;;;;;;;6.79;73.67;100682.28;5053899;28;20036;-72
2023/03/02 05:32:57;;;;;;;1.13;0.68;;;;;;;6.70;73.65;100693.31;5061491;28;20037;-72
2023/03/02 05:35:24;;;;;;;3.00;0.50;;;;;;;6.68;73.78;100687.41;5064592;28;20115;-72
2023/03/02 05:37:50;;;;;;;1.50;0.60;;;;;;;6.65;74.53;100701.41;5064292;28;20052;-72
2023/03/02 05:40:19;;;;;;;2.38;0.50;;;;;;;6.74;74.55;100703.31;5062509;28;20511;-72
2023/03/02 05:42:45;;;;;;;0.50;0.20;;;;;;;7.38;70.99;100700.22;5044791;28;20043;-72
2023/03/02 05:45:33;;;;;;;0.82;0.30;;;;;;;7.80;68.88;100690.84;5056634;28;20037;-72
2023/03/02 05:47:59;;;;;;;0.40;0.20;;;;;;;7.74;69.19;100699.94;5066936;28;20048;-73
2023/03/02 05:50:25;;;;;;;1.15;0.20;;;;;;;7.63;69.72;100703.38;5065682;28;20037;-72
2023/03/02 05:52:51;;;;;;;0.70;0.30;;;;;;;7.56;70.10;100699.59;5066670;28;20510;-72
2023/03/02 05:55:17;;;;;;;1.00;0.40;;;;;;;7.40;71.16;100699.16;5063123;28;20071;-72
2023/03/02 05:57:44;;;;;;;2.08;0.28;;;;;;;7.33;71.85;100719.53;5067448;28;20027;-72
2023/03/02 06:00:12;;;;;;;0.30;0.10;;;;;;;7.79;69.25;100713.38;5051257;28;20404;-72
2023/03/02 06:02:39;;;;;;;0.65;0.20;;;;;;;7.80;69.25;100709.00;5040505;28;20035;-72
2023/03/02 06:05:08;;;;;;;0.40;0.20;;;;;;;7.69;69.91;100709.03;5059130;28;20030;-72
2023/03/02 06:07:33;;;;;;;5.30;0.30;;;;;;;7.63;70.37;100715.50;5049555;28;20044;-72
2023/03/02 06:09:59;;;;;;;2.97;0.28;;;;;;;7.58;70.69;100705.50;5067442;28;20106;-72
2023/03/02 06:12:25;;;;;;;0.60;0.20;;;;;;;7.66;69.99;100718.69;5065033;28;20049;-73
2023/03/02 06:14:51;;;;;;;1.42;0.30;;;;;;;7.74;69.76;100714.69;5046495;28;20040;-72
2023/03/02 06:17:16;;;;;;;1.15;0.40;;;;;;;7.60;70.69;100726.94;5062867;28;20036;-73
2023/03/02 06:19:42;;;;;;;2.33;0.50;;;;;;;7.45;71.91;100732.50;5055551;28;20029;-72
2023/03/02 06:22:08;;;;;;;2.75;0.60;;;;;;;7.35;72.33;100742.75;5059695;28;20119;-73
2023/03/02 06:24:34;;;;;;;6.22;0.75;;;;;;;7.27;73.19;100739.91;5061250;28;20506;-72
2023/03/02 06:26:59;;;;;;;2.05;0.68;;;;;;;7.21;73.90;100730.84;5057245;28;20036;-72
2023/03/02 06:29:25;;;;;;;4.85;0.98;;;;;;;7.16;74.26;100732.13;5058685;28;20539;-73
2023/03/02 06:31:50;;;;;;;1.92;0.60;;;;;;;7.12;74.74;100743.66;5058826;28;20163;-72
2023/03/02 06:34:16;;;;;;;1.95;0.85;;;;;;;7.09;74.89;100747.31;5060266;28;20032;-72
2023/03/02 06:36:42;;;;;;;2.63;0.70;;;;;;;7.09;74.82;100749.91;5061552;28;20029;-72
2023/03/02 06:39:14;;;;;;;1.63;0.60;;;;;;;7.09;75.17;100751.69;5069750;28;20411;-73
2023/03/02 06:41:41;;;;;;;3.00;0.85;;;;;;;7.07;75.82;100759.56;5066614;28;20036;-72
2023/03/02 06:44:07;;;;;;;2.28;1.25;;;;;;;7.09;75.79;100762.06;5065671;28;20139;-71
2023/03/02 06:46:32;;;;;;;1.40;0.80;;;;;;;7.11;75.68;100760.97;5065736;28;20067;-72
2023/03/02 06:48:58;;;;;;;1.98;0.88;;;;;;;7.14;75.94;100768.50;5066901;28;20025;-72
2023/03/02 06:51:24;;;;;;;1.55;1.00;;;;;;;7.16;76.04;100763.22;5056417;28;20140;-72
2023/03/02 06:53:50;;;;;;;2.75;1.10;;;;;;;7.17;76.05;100768.28;5065461;28;20661;-73
2023/03/02 06:56:15;;;;;;;2.58;1.27;;;;;;;7.18;75.95;100767.34;5067225;28;20476;-72
2023/03/02 06:58:41;;;;;;;1.40;0.98;;;;;;;7.20;76.14;100769.81;5068158;28;20028;-72
2023/03/02 07:01:06;;;;;;;2.33;0.90;;;;;;;7.22;75.95;100773.94;5064839;28;20272;-73
2023/03/02 07:03:32;;;;;;;2.85;1.55;;;;;;;7.24;76.03;100777.25;5061999;28;20507;-72
2023/03/02 07:05:59;;;;;;;3.47;1.27;;;;;;;7.25;76.18;100778.91;5060141;28;20060;-72
2023/03/02 07:08:25;;;;;;;6.07;1.25;;;;;;;7.25;76.29;100778.91;5060427;28;20056;-72
2023/03/02 07:10:50;;;;;;;3.67;1.73;;;;;;;7.27;76.63;100787.41;5061034;28;20132;-72
2023/03/02 07:13:16;;;;;;;4.82;1.95;;;;;;;7.30;76.57;100775.97;5062052;28;20031;-73
2023/03/02 07:15:42;;;;;;;4.28;2.88;;;;;;;7.31;76.67;100781.03;5066898;28;20310;-72
2023/03/02 07:18:08;;;;;;;3.13;1.45;;;;;;;7.35;76.43;100784.22;5066755;28;20423;-71
2023/03/02 07:20:34;;;;;;;6.22;2.45;;;;;;;7.39;76.41;100785.66;5069134;28;20113;-72
2023/03/02 07:22:59;;;;;;;4.80;1.70;;;;;;;7.47;76.39;100787.66;5068387;28;20029;-72
2023/03/02 07:25:25;;;;;;;3.08;1.67;;;;;;;7.54;76.45;100796.63;5069317;28;20506;-72
2023/03/02 07:27:50;;;;;;;4.47;2.45;;;;;;;7.57;76.25;100796.38;5066463;28;20185;-72
2023/03/02 07:30:20;;;;;;;4.57;2.13;;;;;;;7.60;76.49;100803.91;5066189;28;20021;-72
2023/03/02 07:32:46;;;;;;;4.55;2.40;;;;;;;7.61;76.15;100797.78;5064841;28;20579;-73
2023/03/02 07:35:11;;;;;;;9.07;4.35;;;;;;;7.68;76.26;100803.34;5058239;28;20116;-73
2023/03/02 07:37:37;;;;;;;6.35;4.00;;;;;;;7.74;75.86;100800.28;5062929;28;20108;-73
2023/03/02 07:40:05;;;;;;;8.07;3.25;;;;;;;7.76;76.62;100808.75;5061015;28;20055;-72
2023/03/02 07:42:31;;;;;;;8.77;2.67;;;;;;;7.81;76.90;100797.09;5066649;28;20127;-73
2023/03/02 07:44:57;;;;;;;4.90;1.65;;;;;;;7.79;76.36;100800.75;5061246;28;20759;-72
2023/03/02 07:47:23;;;;;;;3.75;1.40;;;;;;;7.77;76.15;100802.63;5054011;28;20033;-72
2023/03/02 07:49:48;;;;;;;3.92;2.08;;;;;;;7.78;76.04;100796.50;5065445;28;20506;-72
2023/03/02 07:52:14;;;;;;;3.17;1.90;;;;;;;7.79;76.10;100798.16;5061142;28;20032;-72
2023/03/02 07:54:39;;;;;;;2.80;1.67;;;;;;;7.86;76.01;100807.94;5061443;28;20047;-73
2023/03/02 07:57:05;;;;;;;3.95;1.52;;;;;;;7.94;76.02;100807.34;5064089;28;20426;-72
2023/03/02 07:59:30;;;;;;;4.78;1.48;;;;;;;7.98;76.17;100798.38;5065029;28;20468;-73
2023/03/02 08:01:57;;;;;;;2.97;1.58;;;;;;;8.04;76.49;100807.44;5065583;28;20040;-72
2023/03/02 08:04:23;;;;;;;4.35;1.00;;;;;;;8.04;76.26;100802.25;5061209;28;20399;-72
2023/03/02 08:06:49;;;;;;;5.05;1.70;;;;;;;8.10;76.49;100802.59;5059324;28;20377;-72
2023/03/02 08:09:15;;;;;;;3.42;1.20;;;;;;;8.19;76.51;100806.25;5062523;28;20041;-73
2023/03/02 08:11:41;;;;;;;2.53;1.48;;;;;;;8.22;76.32;100812.00;5060301;28;20147;-72
2023/03/02 08:14:06;;;;;;;2.33;1.38;;;;;;;8.31;76.02;100810.47;5053969;28;20123;-72
2023/03/02 08:16:32;;;;;;;2.00;1.08;;;;;;;8.39;75.64;100813.31;5052704;28;20044;-73
2023/03/02 08:18:57;;;;;;;2.30;0.98;;;;;;;8.42;75.03;100820.88;5051759;28;20448;-73
2023/03/02 08:21:24;;;;;;;2.17;0.90;;;;;;;8.44;74.65;100820.75;5053267;28;20484;-72
2023/03/02 08:23:51;;;;;;;7.32;1.17;;;;;;;8.57;73.87;100811.81;5053281;28;20029;-72
2023/03/02 08:26:18;;;;;;;2.90;0.73;;;;;;;8.73;73.53;100810.59;5052001;28;20037;-72
2023/03/02 08:28:44;;;;;;;3.63;1.02;;;;;;;8.85;73.16;100809.59;5057391;28;20044;-72
2023/03/02 08:31:11;;;;;;;1.40;0.90;;;;;;;8.91;72.70;100804.75;5044736;28;20067;-73
2023/03/02 08:33:36;;;;;;;1.98;0.98;;;;;;;8.89;72.16;100801.44;5061664;28;20465;-73
2023/03/02 08:36:09;;;;;;;1.67;0.73;;;;;;;8.82;71.95;100800.28;5055548;28;20044;-72
2023/03/02 08:38:35;;;;;;;5.10;0.77;;;;;;;8.81;72.15;100796.03;5062986;28;20445;-72
2023/03/02 08:41:06;;;;;;;2.40;0.70;;;;;;;8.78;72.01;100792.88;5058201;28;20037;-73
2023/03/02 08:43:32;;;;;;;1.40;0.63;;;;;;;8.85;71.89;100794.03;5056378;28;20391;-73
2023/03/02 08:45:58;;;;;;;0.80;0.60;;;;;;;8.95;71.15;100802.72;5060429;28;20085;-73
2023/03/02 08:48:24;;;;;;;1.00;0.50;;;;;;;9.02;71.20;100800.41;5051755;28;20082;-73
2023/03/02 08:51:00;;;;;;;2.38;0.40;;;;;;;9.04;71.37;100801.09;5060151;28;20029;-72
2023/03/02 08:53:29;;;;;;;1.55;0.47;;;;;;;9.16;71.37;100800.09;5057182;28;20033;-73
2023/03/02 08:55:55;;;;;;;2.53;0.50;;;;;;;9.37;70.51;100798.31;5057067;28;20043;-72
2023/03/02 08:58:21;;;;;;;1.00;0.50;;;;;;;9.44;70.66;100791.66;5060697;28;20028;-73
2023/03/02 09:00:46;;;;;;;1.10;0.47;;;;;;;9.44;70.80;100788.25;5052744;28;20040;-73
2023/03/02 09:03:12;;;;;;;2.67;0.50;;;;;;;9.32;70.73;100787.47;5052636;28;20581;-73
2023/03/02 09:05:38;;;;;;;1.10;0.40;;;;;;;9.34;70.61;100789.97;5062445;28;20046;-73
2023/03/02 09:08:04;;;;;;;0.80;0.40;;;;;;;9.42;70.82;100790.97;5061057;28;20445;-73
2023/03/02 09:10:30;;;;;;;1.00;0.38;;;;;;;9.47;70.62;100791.38;5060498;28;20404;-72
2023/03/02 09:12:55;;;;;;;1.98;0.50;;;;;;;9.51;70.69;100794.53;5061879;28;20025;-74
2023/03/02 09:15:21;;;;;;;2.67;0.50;;;;;;;9.51;70.62;100791.94;5059976;28;21072;-73
2023/03/02 09:17:46;;;;;;;1.48;0.50;;;;;;;9.52;70.63;100784.00;5062197;28;20524;-73
2023/03/02 09:20:13;;;;;;;4.70;0.47;;;;;;;9.53;70.73;100790.03;5063877;28;20036;-73
2023/03/02 09:22:38;;;;;;;1.30;0.57;;;;;;;9.52;70.88;100793.59;5065239;28;20043;-72
2023/03/02 09:25:05;;;;;;;2.08;0.73;;;;;;;9.51;70.67;100799.75;5059271;28;20024;-73
2023/03/02 09:27:32;;;;;;;21.88;2.45;;;;;;;9.54;70.22;100802.09;5056745;28;20064;-73
2023/03/02 09:29:57;;;;;;;4.05;0.65;;;;;;;9.58;70.04;100801.69;5058284;28;20037;-73
2023/03/02 09:32:22;;;;;;;3.42;0.30;;;;;;;9.61;70.14;100798.03;5062837;28;20036;-73
2023/03/02 09:34:48;;;;;;;1.00;0.40;;;;;;;9.65;70.12;100802.00;5065188;28;20079;-73
2023/03/02 09:37:14;;;;;;;6.38;1.20;;;;;;;9.63;69.83;100807.34;5059461;28;20040;-72
2023/03/02 09:39:39;;;;;;;7.75;0.50;;;;;;;9.63;69.84;100804.75;5062436;28;20052;-72
2023/03/02 09:42:30;;;;;;;0.80;0.30;;;;;;;9.60;70.07;100807.59;5067279;28;20032;-72
2023/03/02 09:45:19;;;;;;;1.35;0.50;;;;;;;9.60;70.17;100807.59;5050155;28;20182;-72
2023/03/02 09:48:22;;;;;;;1.45;0.20;;;;;;;9.61;70.29;100803.22;5060984;28;20045;-72
2023/03/02 09:51:19;;;;;;;1.40;0.20;;;;;;;9.58;70.19;100812.09;5061434;28;20056;-73
2023/03/02 09:53:54;;;;;;;;;;;;;;;9.52;69.73;100804.00;5059788;28;20036;-72
2023/03/02 09:56:20;;;;;;;0.50;0.15;;;;;;;9.52;70.52;100810.03;5061983;28;19927;-72
2023/03/02 09:58:58;;;;;;;0.35;0.20;;;;;;;9.51;69.58;100808.38;5057181;28;20036;-73
2023/03/02 10:01:40;;;;;;;0.40;0.20;;;;;;;9.53;68.79;100805.63;5062948;28;20124;-72
2023/03/02 10:04:13;;;;;;;0.50;0.30;;;;;;;9.55;68.05;100799.34;5066859;28;20036;-72
2023/03/02 10:06:39;;;;;;;0.93;0.38;;;;;;;9.61;68.14;100809.25;5067845;28;20537;-73
2023/03/02 10:09:04;;;;;;;3.65;0.30;;;;;;;9.60;68.49;100812.81;5056869;28;20041;-73
2023/03/02 10:11:45;;;;;;;0.57;0.30;;;;;;;9.63;67.64;100812.53;5056719;28;20044;-72
2023/03/02 10:14:25;;;;;;;0.60;0.20;;;;;;;9.61;67.78;100801.44;5058154;28;20504;-73
2023/03/02 10:17:14;;;;;;;0.77;0.30;;;;;;;9.63;67.78;100802.13;5056476;28;20431;-73
2023/03/02 10:19:59;;;;;;;1.00;0.30;;;;;;;9.73;68.19;100793.56;5028331;28;20052;-71
2023/03/02 10:22:41;;;;;;;1.00;0.40;;;;;;;10.01;68.22;100799.81;5056403;28;20092;-72
2023/03/02 10:25:20;;;;;;;0.95;0.35;;;;;;;10.37;67.54;100795.81;5057224;28;20030;-72
2023/03/02 10:27:55;;;;;;;1.67;0.20;;;;;;;10.59;66.08;100785.13;5057261;28;20108;-72
2023/03/02 10:30:34;;;;;;;0.55;0.20;;;;;;;10.78;64.67;100784.31;5060504;28;20690;-72
2023/03/02 10:33:10;;;;;;;0.47;0.20;;;;;;;10.93;65.17;100773.31;5060373;28;20037;-72
2023/03/02 10:35:37;;;;;;;0.57;0.17;;;;;;;10.84;64.79;100768.94;5059988;28;20586;-72
2023/03/02 10:38:20;;;;;;;1.95;0.20;;;;;;;10.89;63.87;100766.72;5062435;28;20045;-71
2023/03/02 10:40:58;;;;;;;0.68;0.20;;;;;;;10.87;63.46;100766.03;5060653;28;20079;-72
2023/03/02 10:43:26;;;;;;;1.75;0.30;;;;;;;10.81;63.09;100763.19;5063559;28;20115;-72
2023/03/02 10:46:06;;;;;;;0.30;0.10;;;;;;;10.73;59.68;100758.66;5062915;28;20390;-71
2023/03/02 10:48:37;;;;;;;0.30;0.10;;;;;;;10.66;60.99;100768.00;5062362;28;20182;-71
2023/03/02 10:51:03;;;;;;;0.40;0.10;;;;;;;10.69;61.24;100761.69;5047240;28;20206;-71
2023/03/02 10:53:28;;;;;;;0.15;0.10;;;;;;;10.76;61.97;100761.00;5063321;28;20119;-71
2023/03/02 10:55:54;;;;;;;1.40;0.03;;;;;;;10.88;62.30;100759.03;5065775;28;20025;-72
2023/03/02 10:58:19;;;;;;;0.17;0.10;;;;;;;10.91;62.32;100763.97;5067682;28;20118;-72
2023/03/02 11:01:04;;;;;;;0.75;0.20;;;;;;;10.83;62.72;100762.09;5065557;28;20063;-71
2023/03/02 11:03:30;;;;;;;1.85;0.28;;;;;;;10.79;63.06;100768.53;5066167;28;20036;-71
2023/03/02 11:05:57;;;;;;;0.47;0.20;;;;;;;10.81;62.98;100768.41;5066659;28;20119;-71
2023/03/02 11:08:26;;;;;;;0.52;0.20;;;;;;;10.89;63.31;100777.16;5067761;28;20506;-71
2023/03/02 11:10:56;;;;;;;0.73;0.30;;;;;;;11.04;63.25;100772.31;5063122;28;20049;-71
2023/03/02 11:13:29;;;;;;;0.55;0.30;;;;;;;11.11;63.19;100768.19;5060226;28;20036;-71
2023/03/02 11:16:00;;;;;;;3.45;0.25;;;;;;;11.13;63.30;100765.47;5039156;28;20041;-71
2023/03/02 11:18:33;;;;;;;0.90;0.20;;;;;;;11.14;63.32;100769.72;5043188;28;20061;-70
2023/03/02 11:21:09;;;;;;;1.75;0.20;;;;;;;11.14;63.05;100767.09;5053223;28;20025;-71
2023/03/02 11:24:05;;;;;;;2.38;0.20;;;;;;;11.15;62.23;100768.75;5060469;28;20105;-71
2023/03/02 11:26:48;;;;;;;0.93;0.68;;;;;;;11.27;62.79;100768.44;5063586;28;20047;-71
2023/03/02 11:29:35;;;;;;;0.60;0.20;;;;;;;11.48;62.61;100768.22;5064565;28;20037;-71
2023/03/02 11:32:07;;;;;;;0.52;0.20;;;;;;;11.63;62.24;100769.41;5060184;28;20040;-71
2023/03/02 11:34:57;;;;;;;0.50;0.10;;;;;;;11.64;62.02;100765.00;5058809;28;20518;-71
2023/03/02 11:37:27;;;;;;;1.05;0.20;;;;;;;11.56;61.91;100764.91;5059591;28;20029;-71
2023/03/02 11:40:01;;;;;;;0.77;0.30;;;;;;;11.45;62.12;100768.50;5063887;28;20041;-71